Ana Sayfa
METAR-TAF:

METAR-TAF

Havaalanları :

Grant County Airport

Petersburg, Batı Virginia, Amerika Birleşik Devletleri

Enlem: 38-59N, Boylam: 079-08W, yükseklik: 293 m

Güncel hava durumu gözlemi

Rapor saat 01:35 UTC de 15 dakika önce yapıldı.
Sakin rüzgar
Sıcaklık 1°C
Nem 75%
Basınç 1022 hPa
Görüş mesafesi: 16.1 km
9000 ft yükseklikte parçalı çok bulutlu
11000 ft yükseklikte çok bulutlu

METAR: KW99 160135Z AUTO 00000KT 10SM BKN090 OVC110 01/M03 A3018 RMK AO2 T00101033

Saat: 20:50 (01:50 UTC)


TAF: eksik

4.000'den fazla havaalanı için hava durumu gözlemleri ve tahminleri (METAR ve TAF raporları).

Kullanılabilir istasyonlar harita üzerinde sarı ve kırmızı noktalarla gösterilir.

İstasyonun adını görmek için fareyi noktanın üzerinde gezdirin.

Sonrasında hava gözlem ve tahminlerini görmek için tıklayın.

Haritayı değiştirmek için: yaklaştırmak için siyah artı işaretli yeşil düğmeye ve uzaklaştırmak için de eksi işaretli düğmeye hızla tıklayın; bitişik haritalar için yeşil okları kullanın.


METAR-TAF: